Pine Bush, New York
Current Conditions -  °F | °C
As of 1:54 AM on Sunday 23 Nov 2014 (Local Time) from KMGJ Reporting Station
Broken Clouds Broken Clouds  
Wind Chill: 34°   Ceiling: 10000
Heat Index: 39°   Visibility: 10mi
Dew Point: 20°   Wind: 7mph
Humidity: 46%   Direction: 220°SW
Pressure: 30.14"   Gusts: NA
Location:  41.61°N, 74.3°W
Report Text: KMGJ 230654Z AUTO 22006KT 10SM BKN100 04/M07 A3014 RMK AO2 SLP210 T00391067 TSNO
Loading
Personal Weather Stations






























Interactive Weather Map New forecast layout! Learn more

10-Day Weather Forecast

Advertisements
Track Severe Weather on mobile